createdAt,value
2022-08-21T00:02:17.945Z,25.50
2022-08-21T00:04:57.179Z,25.00
2022-08-21T00:07:34.161Z,32.40
2022-08-21T00:10:13.228Z,26.10
2022-08-21T00:12:50.549Z,26.80
2022-08-21T00:15:31.591Z,29.60
2022-08-21T00:18:10.222Z,31.40
2022-08-21T00:20:48.558Z,30.30
2022-08-21T00:23:24.820Z,31.70
2022-08-21T00:26:01.137Z,30.10
2022-08-21T00:28:38.694Z,26.50
2022-08-21T00:31:14.815Z,27.60
2022-08-21T00:33:51.167Z,29.30
2022-08-21T00:36:27.150Z,27.60
2022-08-21T00:39:03.557Z,27.90
2022-08-21T00:41:42.173Z,25.60
2022-08-21T00:44:19.912Z,26.90
2022-08-21T00:46:55.728Z,26.60
2022-08-21T00:49:31.668Z,28.70
2022-08-21T00:52:11.334Z,29.40
2022-08-21T00:54:49.163Z,26.10
2022-08-21T00:57:36.069Z,29.20
2022-08-21T01:00:26.345Z,25.80
2022-08-21T01:03:09.043Z,26.50
2022-08-21T01:05:47.783Z,25.90
2022-08-21T01:08:25.397Z,26.00
2022-08-21T01:11:03.249Z,26.10
2022-08-21T01:13:47.130Z,29.20
2022-08-21T01:16:26.417Z,27.30
2022-08-21T01:19:02.726Z,26.10
2022-08-21T01:21:38.761Z,26.80
2022-08-21T01:24:15.685Z,29.80
2022-08-21T01:26:53.050Z,34.30
2022-08-21T01:29:39.945Z,30.50
2022-08-21T01:32:21.373Z,32.40
2022-08-21T01:34:57.862Z,29.90
2022-08-21T01:37:34.297Z,31.40
2022-08-21T01:40:13.549Z,27.10
2022-08-21T01:42:50.489Z,28.80
2022-08-21T01:45:27.041Z,28.70
2022-08-21T01:48:03.665Z,32.00
2022-08-21T01:50:40.737Z,28.70
2022-08-21T01:53:16.671Z,30.00
2022-08-21T01:55:52.646Z,32.50
2022-08-21T01:58:28.609Z,32.10
2022-08-21T02:01:05.132Z,32.80
2022-08-21T02:03:42.780Z,29.90
2022-08-21T02:06:21.309Z,31.70
2022-08-21T02:08:57.573Z,26.50
2022-08-21T02:11:35.525Z,31.10
2022-08-21T02:14:13.956Z,29.60
2022-08-21T02:16:50.856Z,31.60
2022-08-21T02:19:41.828Z,30.90
2022-08-21T02:22:17.919Z,29.30
2022-08-21T02:24:55.368Z,31.20
2022-08-21T02:27:39.035Z,32.50
2022-08-21T02:30:23.112Z,30.00
2022-08-21T02:32:59.511Z,31.70
2022-08-21T02:35:36.382Z,30.80
2022-08-21T02:38:23.274Z,27.30
2022-08-21T02:41:00.412Z,29.30
2022-08-21T02:43:36.969Z,30.10
2022-08-21T02:46:16.785Z,28.50
2022-08-21T02:48:52.770Z,28.90
2022-08-21T02:51:28.935Z,27.60
2022-08-21T02:54:04.945Z,29.80
2022-08-21T02:56:40.899Z,28.70
2022-08-21T02:59:17.082Z,34.30
2022-08-21T03:01:53.168Z,31.40
2022-08-21T03:04:29.133Z,30.40
2022-08-21T03:07:05.485Z,29.00
2022-08-21T03:09:55.359Z,28.80
2022-08-21T03:12:31.953Z,29.40
2022-08-21T03:15:11.385Z,25.70
2022-08-21T03:17:48.678Z,30.80
2022-08-21T03:20:30.739Z,28.70
2022-08-21T03:23:12.545Z,27.40
2022-08-21T03:25:52.203Z,29.50
2022-08-21T03:28:31.759Z,31.20
2022-08-21T03:31:08.232Z,32.20
2022-08-21T03:33:44.107Z,32.20
2022-08-21T03:36:20.826Z,32.50
2022-08-21T03:38:56.948Z,32.40
2022-08-21T03:41:33.069Z,30.70
2022-08-21T03:44:09.816Z,33.10
2022-08-21T03:46:45.781Z,33.60
2022-08-21T03:49:21.665Z,30.40
2022-08-21T03:51:59.746Z,31.20
2022-08-21T03:54:36.130Z,31.20
2022-08-21T03:57:13.183Z,27.90
2022-08-21T03:59:49.709Z,32.30
2022-08-21T04:02:26.556Z,33.00
2022-08-21T04:05:02.512Z,30.60
2022-08-21T04:07:39.006Z,35.10
2022-08-21T04:10:16.643Z,28.20
2022-08-21T04:12:53.265Z,31.70
2022-08-21T04:15:30.849Z,28.90
2022-08-21T04:18:10.373Z,32.60
2022-08-21T04:20:50.853Z,30.70
2022-08-21T04:23:27.970Z,28.10
2022-08-21T04:26:04.345Z,31.10
2022-08-21T04:28:40.354Z,33.40
2022-08-21T04:31:16.604Z,29.90
2022-08-21T04:33:52.676Z,33.60
2022-08-21T04:36:28.811Z,34.00
2022-08-21T04:39:05.048Z,35.00
2022-08-21T04:41:42.633Z,36.70
2022-08-21T04:44:18.900Z,33.30
2022-08-21T04:46:55.056Z,32.30
2022-08-21T04:49:32.137Z,33.80
2022-08-21T04:52:09.226Z,38.00
2022-08-21T04:54:47.459Z,34.20
2022-08-21T04:57:24.642Z,35.40
2022-08-21T05:00:25.512Z,35.70
2022-08-21T05:03:05.454Z,34.60
2022-08-21T05:05:42.222Z,34.30
2022-08-21T05:08:26.571Z,36.80
2022-08-21T05:11:02.833Z,34.90
2022-08-21T05:13:39.374Z,29.70
2022-08-21T05:16:15.284Z,32.00
2022-08-21T05:19:12.407Z,33.30
2022-08-21T05:21:51.200Z,30.80
2022-08-21T05:24:27.883Z,28.30
2022-08-21T05:27:04.749Z,29.40
2022-08-21T05:29:40.623Z,32.50
2022-08-21T05:32:19.241Z,28.90
2022-08-21T05:34:55.178Z,30.60
2022-08-21T05:37:31.248Z,31.50
2022-08-21T05:40:22.720Z,30.10
2022-08-21T05:43:01.259Z,31.40
2022-08-21T05:45:41.511Z,30.00
2022-08-21T05:48:24.782Z,27.50
2022-08-21T05:51:05.915Z,30.20
2022-08-21T05:53:44.202Z,29.20
2022-08-21T05:56:20.812Z,28.10
2022-08-21T05:58:56.855Z,26.00
2022-08-21T06:01:33.018Z,25.20
2022-08-21T06:04:10.338Z,27.60
2022-08-21T06:06:46.469Z,27.90
2022-08-21T06:09:22.626Z,25.30
2022-08-21T06:11:59.216Z,23.10
2022-08-21T06:14:35.466Z,25.50
2022-08-21T06:17:14.782Z,25.20
2022-08-21T06:19:55.166Z,26.60
2022-08-21T06:22:31.497Z,28.10
2022-08-21T06:25:10.317Z,24.10
2022-08-21T06:27:46.500Z,28.50
2022-08-21T06:30:23.713Z,29.20
2022-08-21T06:33:00.141Z,25.90
2022-08-21T06:35:41.517Z,27.10
2022-08-21T06:40:52.136Z,25.40
2022-08-21T06:43:39.339Z,22.00
2022-08-21T06:46:16.031Z,22.90
2022-08-21T06:48:52.400Z,26.90
2022-08-21T06:51:29.297Z,29.00
2022-08-21T06:54:05.677Z,28.80
2022-08-21T06:56:41.768Z,33.40
2022-08-21T06:59:17.831Z,25.40
2022-08-21T07:01:53.844Z,31.30
2022-08-21T07:04:30.976Z,24.70
2022-08-21T07:07:07.247Z,27.00
2022-08-21T07:09:43.269Z,25.60
2022-08-21T07:12:19.360Z,22.90
2022-08-21T07:14:55.320Z,28.20
2022-08-21T07:17:31.275Z,26.20
2022-08-21T07:20:09.803Z,22.70
2022-08-21T07:22:46.570Z,23.00
2022-08-21T07:25:23.173Z,20.30
2022-08-21T07:27:59.147Z,28.10
2022-08-21T07:30:35.822Z,25.30
2022-08-21T07:33:11.926Z,40.00
2022-08-21T07:35:48.251Z,35.10
2022-08-21T07:38:24.875Z,27.80
2022-08-21T07:41:04.498Z,24.10
2022-08-21T07:43:45.785Z,23.50
2022-08-21T07:46:23.070Z,23.50
2022-08-21T07:48:59.362Z,29.30
2022-08-21T07:51:36.658Z,27.60
2022-08-21T07:54:13.130Z,28.00
2022-08-21T07:56:53.406Z,23.10
2022-08-21T07:59:29.464Z,27.00
2022-08-21T08:02:05.590Z,21.40
2022-08-21T08:04:50.971Z,23.10
2022-08-21T08:07:28.342Z,25.10
2022-08-21T08:10:04.870Z,26.60
2022-08-21T08:12:44.393Z,24.90
2022-08-21T08:15:26.419Z,31.70
2022-08-21T08:18:03.156Z,26.60
2022-08-21T08:20:39.469Z,26.90
2022-08-21T08:23:17.169Z,24.40
2022-08-21T08:25:53.161Z,26.10
2022-08-21T08:28:29.689Z,25.20
2022-08-21T08:31:06.645Z,23.70
2022-08-21T08:33:42.834Z,25.10
2022-08-21T08:36:32.857Z,25.80
2022-08-21T08:39:10.986Z,28.90
2022-08-21T08:41:57.898Z,33.30
2022-08-21T08:44:35.726Z,23.10
2022-08-21T08:47:15.805Z,24.40
2022-08-21T08:50:03.756Z,26.80
2022-08-21T08:52:47.365Z,23.30
2022-08-21T08:55:34.534Z,26.80
2022-08-21T08:58:13.813Z,23.10
2022-08-21T09:00:56.147Z,21.40
2022-08-21T09:03:33.710Z,21.30
2022-08-21T09:06:35.393Z,21.90
2022-08-21T09:09:32.456Z,36.00
2022-08-21T09:12:19.129Z,25.10
2022-08-21T09:15:19.354Z,25.20
2022-08-21T09:18:23.806Z,23.90
2022-08-21T09:21:16.650Z,27.50
2022-08-21T09:24:11.955Z,26.90
2022-08-21T09:27:03.217Z,23.00
2022-08-21T09:32:24.269Z,23.00
2022-08-21T09:35:20.952Z,25.90
2022-08-21T09:38:03.299Z,23.30
2022-08-21T09:40:45.836Z,22.20
2022-08-21T09:43:27.128Z,21.50
2022-08-21T09:46:22.694Z,18.50
2022-08-21T09:49:02.522Z,22.90
2022-08-21T09:51:40.641Z,18.10
2022-08-21T09:54:28.300Z,20.80
2022-08-21T09:57:36.476Z,18.90
2022-08-21T10:00:32.932Z,17.90
2022-08-21T10:03:25.963Z,22.30
2022-08-21T10:06:10.399Z,20.10
2022-08-21T10:08:47.362Z,20.50
2022-08-21T10:11:32.897Z,18.60
2022-08-21T10:14:29.009Z,20.70
2022-08-21T10:17:16.602Z,22.80
2022-08-21T10:20:12.374Z,20.80
2022-08-21T10:23:16.920Z,22.20
2022-08-21T10:26:13.149Z,18.30
2022-08-21T10:29:11.240Z,19.60
2022-08-21T10:32:02.911Z,19.90
2022-08-21T10:35:02.203Z,20.50
2022-08-21T10:38:00.930Z,20.10
2022-08-21T10:40:50.798Z,19.50
2022-08-21T10:43:45.590Z,15.40
2022-08-21T10:46:39.411Z,22.60
2022-08-21T10:49:38.475Z,22.60
2022-08-21T10:52:58.430Z,18.70
2022-08-21T10:55:46.925Z,21.90
2022-08-21T10:58:31.699Z,20.10
2022-08-21T11:01:14.394Z,16.30
2022-08-21T11:04:05.833Z,17.60
2022-08-21T11:06:48.724Z,21.10
2022-08-21T11:09:28.965Z,20.10
2022-08-21T11:12:21.772Z,19.50
2022-08-21T11:15:29.385Z,18.50
2022-08-21T11:18:23.870Z,18.10
2022-08-21T11:21:17.158Z,19.20
2022-08-21T11:24:05.751Z,16.80
2022-08-21T11:26:54.632Z,15.30
2022-08-21T11:29:37.252Z,22.30
2022-08-21T11:33:00.171Z,19.40
2022-08-21T11:35:53.617Z,17.70
2022-08-21T11:38:42.497Z,17.30
2022-08-21T11:41:32.200Z,16.10
2022-08-21T11:44:26.439Z,12.60
2022-08-21T11:47:14.491Z,11.00
2022-08-21T11:50:29.720Z,11.80
2022-08-21T11:53:31.128Z,12.30
2022-08-21T11:56:14.108Z,9.50
2022-08-21T11:58:57.866Z,11.30
2022-08-21T12:01:41.251Z,10.70
2022-08-21T12:04:33.042Z,9.30
2022-08-21T12:07:34.854Z,9.40
2022-08-21T12:10:22.101Z,7.70
2022-08-21T12:13:11.019Z,9.00
2022-08-21T12:15:47.025Z,7.00
2022-08-21T12:18:35.570Z,5.70
2022-08-21T12:21:27.617Z,8.60
2022-08-21T12:24:35.714Z,8.20
2022-08-21T12:27:42.990Z,6.90
2022-08-21T12:30:41.163Z,6.50
2022-08-21T12:33:33.434Z,7.50
2022-08-21T12:36:16.691Z,11.70
2022-08-21T12:38:58.423Z,10.20
2022-08-21T12:41:46.605Z,10.60
2022-08-21T12:44:36.007Z,9.50
2022-08-21T12:47:26.644Z,12.80
2022-08-21T12:50:11.411Z,11.20
2022-08-21T12:52:58.284Z,11.10
2022-08-21T12:55:42.465Z,10.00
2022-08-21T12:58:27.552Z,9.90
2022-08-21T13:01:09.741Z,9.80
2022-08-21T13:03:47.556Z,8.60
2022-08-21T13:06:43.707Z,9.80
2022-08-21T13:09:30.243Z,9.30
2022-08-21T13:12:11.333Z,9.20
2022-08-21T13:14:50.989Z,9.90
2022-08-21T13:17:33.173Z,8.70
2022-08-21T13:20:24.261Z,9.60
2022-08-21T13:23:02.174Z,9.00
2022-08-21T13:25:42.411Z,8.80
2022-08-21T13:28:19.162Z,8.80
2022-08-21T13:30:58.279Z,7.60
2022-08-21T13:33:37.710Z,10.70
2022-08-21T13:36:22.416Z,7.20
2022-08-21T13:39:00.413Z,6.10
2022-08-21T13:41:41.360Z,5.90
2022-08-21T13:44:34.564Z,6.20
2022-08-21T13:47:15.355Z,8.50
2022-08-21T13:49:59.252Z,6.40
2022-08-21T13:52:35.882Z,6.20
2022-08-21T13:55:20.374Z,7.00
2022-08-21T13:58:09.507Z,6.20
2022-08-21T14:00:54.371Z,7.60
2022-08-21T14:03:45.066Z,6.40
2022-08-21T14:06:25.017Z,5.50
2022-08-21T14:09:12.726Z,6.80
2022-08-21T14:11:49.695Z,7.10
2022-08-21T14:14:32.014Z,5.70
2022-08-21T14:17:25.392Z,7.30
2022-08-21T14:20:13.927Z,5.90
2022-08-21T14:22:51.691Z,6.40
2022-08-21T14:25:44.748Z,5.90
2022-08-21T14:28:33.074Z,5.60
2022-08-21T14:31:30.890Z,7.10
2022-08-21T14:34:17.316Z,7.20
2022-08-21T14:36:58.989Z,6.90
2022-08-21T14:39:35.003Z,6.10
2022-08-21T14:42:11.735Z,6.60
2022-08-21T14:44:48.259Z,7.00
2022-08-21T14:47:24.662Z,7.20
2022-08-21T14:50:00.569Z,5.30
2022-08-21T14:52:37.802Z,6.40
2022-08-21T14:55:17.057Z,7.30
2022-08-21T14:57:56.869Z,6.30
2022-08-21T15:00:35.758Z,7.40
2022-08-21T15:03:12.405Z,5.20
2022-08-21T15:05:48.355Z,5.90
2022-08-21T15:08:24.373Z,5.60
2022-08-21T15:11:11.848Z,5.70
2022-08-21T15:13:54.266Z,6.20
2022-08-21T15:16:32.270Z,5.60
2022-08-21T15:19:08.216Z,5.40
2022-08-21T15:21:44.371Z,6.00
2022-08-21T15:24:20.898Z,5.80
2022-08-21T15:26:59.132Z,6.10
2022-08-21T15:29:36.867Z,4.80
2022-08-21T15:32:31.421Z,4.90
2022-08-21T15:35:09.549Z,6.40
2022-08-21T15:37:45.554Z,6.20
2022-08-21T15:40:22.743Z,6.20
2022-08-21T15:43:05.378Z,4.50
2022-08-21T15:45:41.463Z,5.00
2022-08-21T15:48:17.889Z,7.80
2022-08-21T15:50:54.397Z,5.90
2022-08-21T15:53:33.125Z,9.50
2022-08-21T15:56:19.920Z,9.90
2022-08-21T15:59:01.731Z,9.00
2022-08-21T16:01:44.716Z,7.60
2022-08-21T16:04:28.618Z,9.50
2022-08-21T16:07:09.073Z,9.80
2022-08-21T16:12:28.878Z,9.90
2022-08-21T16:15:09.692Z,10.40
2022-08-21T16:17:51.382Z,9.20
2022-08-21T16:20:32.825Z,10.60
2022-08-21T16:23:08.879Z,9.10
2022-08-21T16:25:46.002Z,9.90
2022-08-21T16:28:24.795Z,9.40
2022-08-21T16:31:01.498Z,12.30
2022-08-21T16:33:43.267Z,9.20
2022-08-21T16:36:20.885Z,18.90
2022-08-21T16:38:58.139Z,10.30
2022-08-21T16:41:37.532Z,12.50
2022-08-21T16:44:13.903Z,10.50
2022-08-21T16:46:50.714Z,8.30
2022-08-21T16:49:26.592Z,8.70
2022-08-21T16:52:02.933Z,8.90
2022-08-21T16:54:38.938Z,8.90
2022-08-21T16:57:15.216Z,8.00
2022-08-21T16:59:51.418Z,7.80
2022-08-21T17:02:36.284Z,6.70
2022-08-21T17:05:14.472Z,7.10
2022-08-21T17:07:50.856Z,8.80
2022-08-21T17:10:27.240Z,6.60
2022-08-21T17:13:09.029Z,7.80
2022-08-21T17:15:46.706Z,6.70
2022-08-21T17:18:26.780Z,6.40
2022-08-21T17:21:03.208Z,8.50
2022-08-21T17:23:39.308Z,6.40
2022-08-21T17:26:17.039Z,5.50
2022-08-21T17:28:54.914Z,9.90
2022-08-21T17:31:32.441Z,5.70
2022-08-21T17:34:10.236Z,6.20
2022-08-21T17:36:47.194Z,6.20
2022-08-21T17:39:26.734Z,6.00
2022-08-21T17:42:10.464Z,7.40
2022-08-21T17:44:48.740Z,5.90
2022-08-21T17:47:25.002Z,6.70
2022-08-21T17:50:00.983Z,7.40
2022-08-21T17:52:37.689Z,6.60
2022-08-21T17:55:16.638Z,5.40
2022-08-21T17:57:55.834Z,5.80
2022-08-21T18:00:33.729Z,9.00
2022-08-21T18:03:17.365Z,6.20
2022-08-21T18:05:57.024Z,5.80
2022-08-21T18:08:32.995Z,5.20
2022-08-21T18:11:10.369Z,6.90
2022-08-21T18:13:51.174Z,30.90
2022-08-21T18:16:28.361Z,6.10
2022-08-21T18:19:07.153Z,7.60
2022-08-21T18:21:43.788Z,6.80
2022-08-21T18:24:19.838Z,5.70
2022-08-21T18:26:56.977Z,7.60
2022-08-21T18:29:33.290Z,5.90
2022-08-21T18:32:31.183Z,6.30
2022-08-21T18:35:11.541Z,6.30
2022-08-21T18:37:48.555Z,6.10
2022-08-21T18:40:25.093Z,7.70
2022-08-21T18:43:04.273Z,6.50
2022-08-21T18:45:40.825Z,6.90
2022-08-21T18:48:19.798Z,9.40
2022-08-21T18:50:58.860Z,6.90
2022-08-21T18:53:36.898Z,5.90
2022-08-21T18:56:15.898Z,6.10
2022-08-21T18:58:57.619Z,5.80
2022-08-21T19:01:35.665Z,5.30
2022-08-21T19:04:29.884Z,5.90
2022-08-21T19:07:10.863Z,5.20
2022-08-21T19:12:45.789Z,4.60
2022-08-21T19:15:24.537Z,4.60
2022-08-21T19:18:03.694Z,5.00
2022-08-21T19:20:42.902Z,7.00
2022-08-21T19:26:19.213Z,6.70
2022-08-21T19:28:59.642Z,5.20
2022-08-21T19:31:43.183Z,6.10
2022-08-21T19:34:23.704Z,6.70
2022-08-21T19:37:00.627Z,6.30
2022-08-21T19:39:42.449Z,7.20
2022-08-21T19:42:28.624Z,8.30
2022-08-21T19:45:07.280Z,9.40
2022-08-21T19:47:48.732Z,8.00
2022-08-21T19:50:25.751Z,8.80
2022-08-21T19:53:02.050Z,19.90
2022-08-21T19:55:39.093Z,10.20
2022-08-21T19:58:34.368Z,9.80
2022-08-21T20:01:16.762Z,6.80
2022-08-21T20:03:55.487Z,6.80
2022-08-21T20:06:34.894Z,6.20
2022-08-21T20:09:12.541Z,5.70
2022-08-21T20:11:52.325Z,5.20
2022-08-21T20:14:33.543Z,4.70
2022-08-21T20:17:15.242Z,5.30
2022-08-21T20:22:31.323Z,5.20
2022-08-21T20:25:09.513Z,4.70
2022-08-21T20:27:46.559Z,6.20
2022-08-21T20:30:24.176Z,5.80
2022-08-21T20:33:02.535Z,7.40
2022-08-21T20:35:39.312Z,5.50
2022-08-21T20:38:15.511Z,4.90
2022-08-21T20:40:54.770Z,4.70
2022-08-21T20:43:32.863Z,5.20
2022-08-21T20:46:10.579Z,5.90
2022-08-21T20:48:49.814Z,6.20
2022-08-21T20:51:32.158Z,4.90
2022-08-21T20:54:26.771Z,4.20
2022-08-21T21:00:17.446Z,5.60
2022-08-21T21:03:01.083Z,6.20
2022-08-21T21:05:49.320Z,4.50
2022-08-21T21:08:32.653Z,5.30
2022-08-21T21:11:17.015Z,5.40
2022-08-21T21:14:01.888Z,4.50
2022-08-21T21:16:51.200Z,13.00
2022-08-21T21:19:41.436Z,4.80
2022-08-21T21:22:26.339Z,4.90
2022-08-21T21:25:14.257Z,5.20
2022-08-21T21:27:58.704Z,5.60
2022-08-21T21:30:46.504Z,6.10
2022-08-21T21:33:23.320Z,5.40
2022-08-21T21:36:15.550Z,3.60
2022-08-21T21:39:11.548Z,5.90
2022-08-21T21:42:00.293Z,5.20
2022-08-21T21:45:08.355Z,4.30
2022-08-21T21:48:04.810Z,4.10
2022-08-21T21:51:00.790Z,3.90
2022-08-21T21:54:04.102Z,4.40
2022-08-21T21:56:55.261Z,4.10
2022-08-21T21:59:52.480Z,4.10
2022-08-21T22:02:46.042Z,3.80
2022-08-21T22:05:48.997Z,5.00
2022-08-21T22:08:39.639Z,5.80
2022-08-21T22:11:38.439Z,5.50
2022-08-21T22:14:21.521Z,5.40
2022-08-21T22:17:01.773Z,3.80
2022-08-21T22:19:46.036Z,3.70
2022-08-21T22:22:29.670Z,4.10
2022-08-21T22:25:17.036Z,4.20
2022-08-21T22:28:05.004Z,4.30
2022-08-21T22:30:51.019Z,4.60
2022-08-21T22:33:31.661Z,3.50
2022-08-21T22:36:22.690Z,4.90
2022-08-21T22:38:59.611Z,3.60
2022-08-21T22:41:43.480Z,6.30
2022-08-21T22:44:28.767Z,3.90
2022-08-21T22:47:06.219Z,3.60
2022-08-21T22:49:52.170Z,5.50
2022-08-21T22:52:33.108Z,3.70
2022-08-21T22:55:30.243Z,3.30
2022-08-21T22:58:20.005Z,3.70
2022-08-21T23:01:05.279Z,6.60
2022-08-21T23:03:52.626Z,5.10
2022-08-21T23:06:38.207Z,7.00
2022-08-21T23:09:35.047Z,5.50
2022-08-21T23:12:34.117Z,4.90
2022-08-21T23:15:36.996Z,5.40
2022-08-21T23:18:27.724Z,7.10
2022-08-21T23:21:17.582Z,5.80
2022-08-21T23:24:19.682Z,8.40
2022-08-21T23:27:11.054Z,6.60
2022-08-21T23:29:58.899Z,6.90
2022-08-21T23:33:14.656Z,9.50
2022-08-21T23:36:23.294Z,6.20
2022-08-21T23:39:28.332Z,7.30
2022-08-21T23:42:20.986Z,9.10
2022-08-21T23:45:14.113Z,10.70
2022-08-21T23:48:08.763Z,12.70
2022-08-21T23:50:59.144Z,11.60
2022-08-21T23:53:55.557Z,10.70
2022-08-21T23:56:57.834Z,12.90
2022-08-21T23:59:53.230Z,10.70
